Hauptseite
METAR-TAF:

METAR-TAF

Flughäfen :

Verkehrslandeplatz Hof-Plauen

Hof, Deutschland

Breite: 50-19N, Länge: 011-53E, Höhe: 567 m

Beobachtung

Neuester Wetterbericht von vor 1 Stunde und 30 Minuten, um 17:50 UTC
Wind 4 kt aus Süd/Südwest
Temperatur 20°C
Luftfeuchtigkeit 53%
Luftdruck 1021 hPa
Sichtweite 10 km oder mehr
keine Wolken unter 1500 m und keine Kumulonimbus oder Gewitterwolken

METAR: EDQM 191750Z 21004KT CAVOK 20/10 Q1021

Zeit: 21:20 (19:20 UTC)

Prognose

Neuester Wetterbericht von vor 2 Stunden und 20 Minuten, um 17:00 UTC
Gültige Prognose vom 19 um 18 UTC bis 20 um 03 UTC
Wind 3 kt aus Süd
Sichtweite 10 km oder mehr
keine Wolken unter 1500 m und keine Kumulonimbus oder Gewitterwolken

TAF: EDQM 191700Z 1918/2003 17003KT CAVOK

Wetterbeobachtungen und Prognosen von mehr als 4000 Flughäfen (METAR und TAF Bericht).

Die verfügbaren Stationen werden durch gelbe und rote Markierungen auf der Karte dargestellt.

Führen Sie die Maus auf sie, um den Namen der Station zu sehen.

Darauf klicken, um die Beobachtung von Wetterbeobachtungen und Prognosen zu sehen.

Um die Karte zu ändern : klicken Sie auf den grünen Tasten mit einem schwarzen Kreuz Zum Vergrößern, auf den grünen Button mit einem Gedankenstrich zu verkleinern, oder auf die grünen Pfeile für benachbarte Karten.


METAR-TAF: